sensor_id;sensor_type;location;lat;lon;timestamp;pressure;altitude;pressure_sealevel;temperature;humidity
46942;BME280;32676;52.630;4.896;2023-12-14T00:02:03;99510.69;;;5.36;85.36
46942;BME280;32676;52.630;4.896;2023-12-14T00:04:29;99517.59;;;5.37;85.33
46942;BME280;32676;52.630;4.896;2023-12-14T00:06:55;99517.59;;;5.37;85.37
46942;BME280;32676;52.630;4.896;2023-12-14T00:09:22;99524.53;;;5.38;85.25
46942;BME280;32676;52.630;4.896;2023-12-14T00:11:50;99499.75;;;5.25;85.27
46942;BME280;32676;52.630;4.896;2023-12-14T00:14:16;99502.28;;;5.28;85.50
46942;BME280;32676;52.630;4.896;2023-12-14T00:16:43;99507.28;;;5.34;85.37
46942;BME280;32676;52.630;4.896;2023-12-14T00:19:09;99510.81;;;5.33;85.49
46942;BME280;32676;52.630;4.896;2023-12-14T00:21:35;99503.88;;;5.32;85.47
46942;BME280;32676;52.630;4.896;2023-12-14T00:24:01;99506.56;;;5.29;85.36
46942;BME280;32676;52.630;4.896;2023-12-14T00:26:28;99505.59;;;5.33;85.25
46942;BME280;32676;52.630;4.896;2023-12-14T00:28:55;99499.59;;;5.31;85.38
46942;BME280;32676;52.630;4.896;2023-12-14T00:31:22;99502.19;;;5.31;85.32
46942;BME280;32676;52.630;4.896;2023-12-14T00:33:48;99510.00;;;5.31;85.30
46942;BME280;32676;52.630;4.896;2023-12-14T00:36:18;99512.50;;;5.34;85.52
46942;BME280;32676;52.630;4.896;2023-12-14T00:38:45;99501.47;;;5.26;85.52
46942;BME280;32676;52.630;4.896;2023-12-14T00:41:12;99486.75;;;5.25;85.47
46942;BME280;32676;52.630;4.896;2023-12-14T00:43:38;99507.41;;;5.31;85.53
46942;BME280;32676;52.630;4.896;2023-12-14T00:46:07;99522.03;;;5.35;85.44
46942;BME280;32676;52.630;4.896;2023-12-14T00:48:33;99531.53;;;5.36;85.32
46942;BME280;32676;52.630;4.896;2023-12-14T00:51:00;99528.03;;;5.37;85.61
46942;BME280;32676;52.630;4.896;2023-12-14T00:53:26;99547.06;;;5.39;85.58
46942;BME280;32676;52.630;4.896;2023-12-14T00:55:53;99463.50;;;4.92;85.45
46942;BME280;32676;52.630;4.896;2023-12-14T00:58:19;99541.00;;;5.39;85.42
46942;BME280;32676;52.630;4.896;2023-12-14T01:00:46;99549.66;;;5.39;85.41
46942;BME280;32676;52.630;4.896;2023-12-14T01:03:13;99545.38;;;5.38;85.40
46942;BME280;32676;52.630;4.896;2023-12-14T01:05:40;99538.44;;;5.37;85.34
46942;BME280;32676;52.630;4.896;2023-12-14T01:08:07;99501.81;;;5.15;85.40
46942;BME280;32676;52.630;4.896;2023-12-14T01:10:33;99485.78;;;5.01;85.27
46942;BME280;32676;52.630;4.896;2023-12-14T01:12:59;99541.94;;;5.36;85.33
46942;BME280;32676;52.630;4.896;2023-12-14T01:15:26;99536.72;;;5.36;85.08
46942;BME280;32676;52.630;4.896;2023-12-14T01:17:52;99507.78;;;5.19;85.16
46942;BME280;32676;52.630;4.896;2023-12-14T01:20:20;99531.66;;;5.33;84.84
46942;BME280;32676;52.630;4.896;2023-12-14T01:22:47;99540.25;;;5.35;84.96
46942;BME280;32676;52.630;4.896;2023-12-14T01:25:13;99537.66;;;5.35;84.84
46942;BME280;32676;52.630;4.896;2023-12-14T01:27:40;99525.00;;;5.23;85.06
46942;BME280;32676;52.630;4.896;2023-12-14T01:30:07;99521.53;;;5.24;84.85
46942;BME280;32676;52.630;4.896;2023-12-14T01:32:37;99554.91;;;5.38;84.76
46942;BME280;32676;52.630;4.896;2023-12-14T01:35:04;99540.25;;;5.35;84.69
46942;BME280;32676;52.630;4.896;2023-12-14T01:37:32;99528.41;;;5.25;84.56
46942;BME280;32676;52.630;4.896;2023-12-14T01:39:58;99552.38;;;5.36;84.33
46942;BME280;32676;52.630;4.896;2023-12-14T01:42:25;99564.41;;;5.41;84.49
46942;BME280;32676;52.630;4.896;2023-12-14T01:44:51;99559.19;;;5.41;84.32
46942;BME280;32676;52.630;4.896;2023-12-14T01:47:18;99569.63;;;5.41;84.38
46942;BME280;32676;52.630;4.896;2023-12-14T01:49:44;99543.00;;;5.31;84.15
46942;BME280;32676;52.630;4.896;2023-12-14T01:52:11;99564.59;;;5.34;83.90
46942;BME280;32676;52.630;4.896;2023-12-14T01:54:38;99578.25;;;5.43;83.93
46942;BME280;32676;52.630;4.896;2023-12-14T01:57:05;99569.63;;;5.41;83.95
46942;BME280;32676;52.630;4.896;2023-12-14T01:59:31;99566.22;;;5.38;83.90
46942;BME280;32676;52.630;4.896;2023-12-14T02:01:58;99559.28;;;5.37;83.56
46942;BME280;32676;52.630;4.896;2023-12-14T02:04:26;99549.84;;;5.35;83.66
46942;BME280;32676;52.630;4.896;2023-12-14T02:06:53;99545.47;;;5.35;83.52
46942;BME280;32676;52.630;4.896;2023-12-14T02:09:19;99535.13;;;5.32;83.59
46942;BME280;32676;52.630;4.896;2023-12-14T02:11:47;99521.59;;;5.21;83.46
46942;BME280;32676;52.630;4.896;2023-12-14T02:14:13;99530.00;;;5.29;83.24
46942;BME280;32676;52.630;4.896;2023-12-14T02:16:40;99530.94;;;5.28;82.96
46942;BME280;32676;52.630;4.896;2023-12-14T02:19:06;99530.94;;;5.28;82.55
46942;BME280;32676;52.630;4.896;2023-12-14T02:21:33;99532.63;;;5.29;82.51
46942;BME280;32676;52.630;4.896;2023-12-14T02:24:01;99541.25;;;5.31;82.49
46942;BME280;32676;52.630;4.896;2023-12-14T02:26:27;99538.66;;;5.31;82.38
46942;BME280;32676;52.630;4.896;2023-12-14T02:28:54;99527.56;;;5.25;82.26
46942;BME280;32676;52.630;4.896;2023-12-14T02:31:20;99537.03;;;5.27;82.25
46942;BME280;32676;52.630;4.896;2023-12-14T02:33:47;99542.16;;;5.30;82.17
46942;BME280;32676;52.630;4.896;2023-12-14T02:36:13;99545.56;;;5.32;82.47
46942;BME280;32676;52.630;4.896;2023-12-14T02:38:40;99521.69;;;5.18;82.43
46942;BME280;32676;52.630;4.896;2023-12-14T02:41:07;99547.44;;;5.27;82.38
46942;BME280;32676;52.630;4.896;2023-12-14T02:43:34;99563.69;;;5.35;82.21
46942;BME280;32676;52.630;4.896;2023-12-14T02:46:00;99554.38;;;5.28;82.26
46942;BME280;32676;52.630;4.896;2023-12-14T02:48:28;99549.25;;;5.25;82.13
46942;BME280;32676;52.630;4.896;2023-12-14T02:50:55;99574.06;;;5.37;81.93
46942;BME280;32676;52.630;4.896;2023-12-14T02:53:22;99540.44;;;5.29;81.66
46942;BME280;32676;52.630;4.896;2023-12-14T02:55:48;99547.34;;;5.30;81.60
46942;BME280;32676;52.630;4.896;2023-12-14T02:58:16;99533.53;;;5.28;81.34
46942;BME280;32676;52.630;4.896;2023-12-14T03:00:42;99526.72;;;5.24;81.22
46942;BME280;32676;52.630;4.896;2023-12-14T03:03:09;99512.03;;;5.22;80.89
46942;BME280;32676;52.630;4.896;2023-12-14T03:05:36;99493.06;;;5.18;80.71
46942;BME280;32676;52.630;4.896;2023-12-14T03:08:02;99492.25;;;5.16;80.25
46942;BME280;32676;52.630;4.896;2023-12-14T03:10:29;99431.53;;;4.87;80.15
46942;BME280;32676;52.630;4.896;2023-12-14T03:12:55;99449.16;;;5.06;80.15
46942;BME280;32676;52.630;4.896;2023-12-14T03:15:23;99435.47;;;5.00;80.13
46942;BME280;32676;52.630;4.896;2023-12-14T03:17:49;99423.44;;;4.96;80.13
46942;BME280;32676;52.630;4.896;2023-12-14T03:20:16;99413.03;;;4.96;80.37
46942;BME280;32676;52.630;4.896;2023-12-14T03:22:42;99409.63;;;4.94;80.26
46942;BME280;32676;52.630;4.896;2023-12-14T03:25:09;99385.78;;;4.80;80.46
46942;BME280;32676;52.630;4.896;2023-12-14T03:27:36;99395.28;;;4.83;80.60
46942;BME280;32676;52.630;4.896;2023-12-14T03:30:03;99385.91;;;4.77;80.47
46942;BME280;32676;52.630;4.896;2023-12-14T03:32:34;99402.16;;;4.84;80.56
46942;BME280;32676;52.630;4.896;2023-12-14T03:35:00;99409.63;;;4.94;80.61
46942;BME280;32676;52.630;4.896;2023-12-14T03:37:27;99394.31;;;4.85;80.87
46942;BME280;32676;52.630;4.896;2023-12-14T03:39:53;99354.22;;;4.64;80.94
46942;BME280;32676;52.630;4.896;2023-12-14T03:42:20;99405.34;;;4.93;81.03
46942;BME280;32676;52.630;4.896;2023-12-14T03:44:47;99410.53;;;4.93;81.07
46942;BME280;32676;52.630;4.896;2023-12-14T03:47:13;99401.09;;;4.89;81.10
46942;BME280;32676;52.630;4.896;2023-12-14T03:49:42;99405.44;;;4.90;80.97
46942;BME280;32676;52.630;4.896;2023-12-14T03:52:09;99419.16;;;4.95;81.24
46942;BME280;32676;52.630;4.896;2023-12-14T03:54:35;99394.44;;;4.82;81.25
46942;BME280;32676;52.630;4.896;2023-12-14T03:57:02;99404.53;;;4.91;81.19
46942;BME280;32676;52.630;4.896;2023-12-14T03:59:28;99404.53;;;4.91;81.33
46942;BME280;32676;52.630;4.896;2023-12-14T04:01:57;99415.78;;;4.92;81.35
46942;BME280;32676;52.630;4.896;2023-12-14T04:04:23;99398.47;;;4.91;81.38
46942;BME280;32676;52.630;4.896;2023-12-14T04:06:51;99395.91;;;4.89;81.47
46942;BME280;32676;52.630;4.896;2023-12-14T04:09:18;99401.97;;;4.90;81.60
46942;BME280;32676;52.630;4.896;2023-12-14T04:11:44;99378.06;;;4.78;81.43
46942;BME280;32676;52.630;4.896;2023-12-14T04:14:11;99387.28;;;4.87;81.39
46942;BME280;32676;52.630;4.896;2023-12-14T04:16:37;99385.69;;;4.83;81.55
46942;BME280;32676;52.630;4.896;2023-12-14T04:19:04;99371.91;;;4.81;81.34
46942;BME280;32676;52.630;4.896;2023-12-14T04:21:35;99349.66;;;4.71;81.42
46942;BME280;32676;52.630;4.896;2023-12-14T04:24:03;99356.38;;;4.78;81.46
46942;BME280;32676;52.630;4.896;2023-12-14T04:26:29;99353.00;;;4.74;81.48
46942;BME280;32676;52.630;4.896;2023-12-14T04:28:56;99332.53;;;4.64;81.47
46942;BME280;32676;52.630;4.896;2023-12-14T04:31:22;99358.97;;;4.78;81.58
46942;BME280;32676;52.630;4.896;2023-12-14T04:33:48;99336.91;;;4.63;81.39
46942;BME280;32676;52.630;4.896;2023-12-14T04:36:15;99356.63;;;4.70;81.44
46942;BME280;32676;52.630;4.896;2023-12-14T04:38:41;99383.13;;;4.81;81.35
46942;BME280;32676;52.630;4.896;2023-12-14T04:41:12;99392.63;;;4.84;81.53
46942;BME280;32676;52.630;4.896;2023-12-14T04:43:39;99365.47;;;4.65;81.61
46942;BME280;32676;52.630;4.896;2023-12-14T04:46:05;99404.63;;;4.88;81.63
46942;BME280;32676;52.630;4.896;2023-12-14T04:48:32;99407.22;;;4.88;81.81
46942;BME280;32676;52.630;4.896;2023-12-14T04:50:58;99403.97;;;4.81;82.00
46942;BME280;32676;52.630;4.896;2023-12-14T04:53:25;99427.03;;;4.92;82.07
46942;BME280;32676;52.630;4.896;2023-12-14T04:55:51;99441.66;;;4.96;82.00
46942;BME280;32676;52.630;4.896;2023-12-14T04:58:19;99417.13;;;4.77;81.87
46942;BME280;32676;52.630;4.896;2023-12-14T05:00:46;99464.06;;;5.02;82.10
46942;BME280;32676;52.630;4.896;2023-12-14T05:03:12;99473.72;;;4.98;82.24
46942;BME280;32676;52.630;4.896;2023-12-14T05:05:39;99486.50;;;5.06;82.01
46942;BME280;32676;52.630;4.896;2023-12-14T05:08:05;99484.13;;;4.98;81.78
46942;BME280;32676;52.630;4.896;2023-12-14T05:10:32;99492.75;;;5.00;81.97
46942;BME280;32676;52.630;4.896;2023-12-14T05:12:59;99499.47;;;5.08;81.84
46942;BME280;32676;52.630;4.896;2023-12-14T05:15:26;99497.75;;;5.07;81.78
46942;BME280;32676;52.630;4.896;2023-12-14T05:17:53;99481.63;;;4.95;81.85
46942;BME280;32676;52.630;4.896;2023-12-14T05:20:19;99498.59;;;5.07;81.53
46942;BME280;32676;52.630;4.896;2023-12-14T05:22:46;99504.69;;;5.08;81.52
46942;BME280;32676;52.630;4.896;2023-12-14T05:25:12;99499.47;;;5.08;81.43
46942;BME280;32676;52.630;4.896;2023-12-14T05:27:40;99441.34;;;4.79;81.36
46942;BME280;32676;52.630;4.896;2023-12-14T05:30:07;99465.28;;;4.90;81.40
46942;BME280;32676;52.630;4.896;2023-12-14T05:32:35;99495.34;;;5.00;81.50
46942;BME280;32676;52.630;4.896;2023-12-14T05:35:01;99501.34;;;5.03;81.34
46942;BME280;32676;52.630;4.896;2023-12-14T05:37:28;99520.19;;;5.11;81.42
46942;BME280;32676;52.630;4.896;2023-12-14T05:39:54;99542.66;;;5.15;81.55
46942;BME280;32676;52.630;4.896;2023-12-14T05:42:21;99540.88;;;5.15;81.80
46942;BME280;32676;52.630;4.896;2023-12-14T05:44:49;99540.84;;;5.17;81.71
46942;BME280;32676;52.630;4.896;2023-12-14T05:47:15;99531.41;;;5.13;82.00
46942;BME280;32676;52.630;4.896;2023-12-14T05:49:43;99516.97;;;5.03;82.03
46942;BME280;32676;52.630;4.896;2023-12-14T05:52:10;99508.44;;;4.97;82.28
46942;BME280;32676;52.630;4.896;2023-12-14T05:54:37;99509.34;;;4.96;82.31
46942;BME280;32676;52.630;4.896;2023-12-14T05:57:05;99525.38;;;5.11;82.32
46942;BME280;32676;52.630;4.896;2023-12-14T05:59:31;99540.94;;;5.14;82.34
46942;BME280;32676;52.630;4.896;2023-12-14T06:01:58;99558.16;;;5.18;82.44
46942;BME280;32676;52.630;4.896;2023-12-14T06:04:26;99559.94;;;5.16;82.56
46942;BME280;32676;52.630;4.896;2023-12-14T06:06:54;99574.53;;;5.22;82.55
46942;BME280;32676;52.630;4.896;2023-12-14T06:09:20;99578.81;;;5.24;82.55
46942;BME280;32676;52.630;4.896;2023-12-14T06:11:54;99584.16;;;5.19;82.76
46942;BME280;32676;52.630;4.896;2023-12-14T06:14:21;99591.91;;;5.21;82.69
46942;BME280;32676;52.630;4.896;2023-12-14T06:16:47;99596.13;;;5.25;82.79
46942;BME280;32676;52.630;4.896;2023-12-14T06:19:14;99597.00;;;5.26;83.11
46942;BME280;32676;52.630;4.896;2023-12-14T06:21:41;99587.50;;;5.23;83.16
46942;BME280;32676;52.630;4.896;2023-12-14T06:24:09;99608.16;;;5.29;83.18
46942;BME280;32676;52.630;4.896;2023-12-14T06:26:40;99620.28;;;5.30;83.23
46942;BME280;32676;52.630;4.896;2023-12-14T06:29:06;99614.31;;;5.27;82.96
46942;BME280;32676;52.630;4.896;2023-12-14T06:31:33;99639.25;;;5.35;83.16
46942;BME280;32676;52.630;4.896;2023-12-14T06:33:59;99652.19;;;5.38;82.86
46942;BME280;32676;52.630;4.896;2023-12-14T06:36:29;99660.00;;;5.38;82.90
46942;BME280;32676;52.630;4.896;2023-12-14T06:38:55;99665.09;;;5.42;82.82
46942;BME280;32676;52.630;4.896;2023-12-14T06:41:24;99667.81;;;5.38;82.92
46942;BME280;32676;52.630;4.896;2023-12-14T06:43:51;99666.91;;;5.39;82.95
46942;BME280;32676;52.630;4.896;2023-12-14T06:46:18;99652.31;;;5.34;83.06
46942;BME280;32676;52.630;4.896;2023-12-14T06:48:45;99670.31;;;5.42;83.06
46942;BME280;32676;52.630;4.896;2023-12-14T06:51:12;99647.19;;;5.31;82.88
46942;BME280;32676;52.630;4.896;2023-12-14T06:53:39;99668.63;;;5.41;82.79
46942;BME280;32676;52.630;4.896;2023-12-14T06:56:07;99645.50;;;5.30;82.71
46942;BME280;32676;52.630;4.896;2023-12-14T06:58:37;99672.91;;;5.42;82.71
46942;BME280;32676;52.630;4.896;2023-12-14T07:01:03;99662.75;;;5.32;82.55
46942;BME280;32676;52.630;4.896;2023-12-14T07:03:30;99691.06;;;5.45;82.15
46942;BME280;32676;52.630;4.896;2023-12-14T07:05:57;99706.63;;;5.48;82.19
46942;BME280;32676;52.630;4.896;2023-12-14T07:08:23;99733.34;;;5.53;82.31
46942;BME280;32676;52.630;4.896;2023-12-14T07:10:50;99725.72;;;5.47;82.62
46942;BME280;32676;52.630;4.896;2023-12-14T07:13:16;99734.19;;;5.55;82.33
46942;BME280;32676;52.630;4.896;2023-12-14T07:15:44;99700.22;;;5.28;82.20
46942;BME280;32676;52.630;4.896;2023-12-14T07:18:11;99725.72;;;5.47;82.04
46942;BME280;32676;52.630;4.896;2023-12-14T07:20:38;99734.19;;;5.55;82.06
46942;BME280;32676;52.630;4.896;2023-12-14T07:23:04;99754.94;;;5.58;81.97
46942;BME280;32676;52.630;4.896;2023-12-14T07:25:31;99753.25;;;5.57;81.86
46942;BME280;32676;52.630;4.896;2023-12-14T07:27:57;99749.81;;;5.55;81.77
46942;BME280;32676;52.630;4.896;2023-12-14T07:30:24;99740.28;;;5.54;81.77
46942;BME280;32676;52.630;4.896;2023-12-14T07:32:52;99732.47;;;5.54;81.72
46942;BME280;32676;52.630;4.896;2023-12-14T07:35:18;99734.28;;;5.52;81.79
46942;BME280;32676;52.630;4.896;2023-12-14T07:37:45;99728.25;;;5.50;81.87
46942;BME280;32676;52.630;4.896;2023-12-14T07:40:11;99724.84;;;5.48;81.86
46942;BME280;32676;52.630;4.896;2023-12-14T07:42:38;99708.41;;;5.46;81.81
46942;BME280;32676;52.630;4.896;2023-12-14T07:45:05;99709.31;;;5.45;81.92
46942;BME280;32676;52.630;4.896;2023-12-14T07:47:33;99699.75;;;5.44;81.99
46942;BME280;32676;52.630;4.896;2023-12-14T07:50:01;99678.47;;;5.29;82.09
46942;BME280;32676;52.630;4.896;2023-12-14T07:52:29;99679.97;;;5.38;82.19
46942;BME280;32676;52.630;4.896;2023-12-14T07:54:55;99665.31;;;5.34;82.28
46942;BME280;32676;52.630;4.896;2023-12-14T07:57:21;99646.34;;;5.30;82.11
46942;BME280;32676;52.630;4.896;2023-12-14T07:59:49;99608.75;;;5.09;82.40
46942;BME280;32676;52.630;4.896;2023-12-14T08:02:15;99632.59;;;5.25;82.39
46942;BME280;32676;52.630;4.896;2023-12-14T08:04:42;99567.59;;;4.92;82.50
46942;BME280;32676;52.630;4.896;2023-12-14T08:07:09;99591.41;;;5.10;82.39
46942;BME280;32676;52.630;4.896;2023-12-14T08:09:36;99588.69;;;5.13;82.35
46942;BME280;32676;52.630;4.896;2023-12-14T08:12:03;99556.91;;;5.02;82.43
46942;BME280;32676;52.630;4.896;2023-12-14T08:14:32;99561.13;;;5.06;82.49
46942;BME280;32676;52.630;4.896;2023-12-14T08:16:59;99569.75;;;5.08;82.45
46942;BME280;32676;52.630;4.896;2023-12-14T08:19:25;99545.84;;;4.95;82.54
46942;BME280;32676;52.630;4.896;2023-12-14T08:21:52;99567.16;;;5.08;82.71
46942;BME280;32676;52.630;4.896;2023-12-14T08:24:20;99580.22;;;5.06;82.63
46942;BME280;32676;52.630;4.896;2023-12-14T08:26:46;99610.22;;;5.18;82.51
46942;BME280;32676;52.630;4.896;2023-12-14T08:29:13;99632.69;;;5.22;82.60
46942;BME280;32676;52.630;4.896;2023-12-14T08:31:39;99651.63;;;5.27;82.31
46942;BME280;32676;52.630;4.896;2023-12-14T08:34:06;99667.16;;;5.30;82.22
46942;BME280;32676;52.630;4.896;2023-12-14T08:36:32;99684.41;;;5.34;82.15
46942;BME280;32676;52.630;4.896;2023-12-14T08:38:59;99679.47;;;5.25;82.01
46942;BME280;32676;52.630;4.896;2023-12-14T08:41:26;99727.63;;;5.42;81.85
46942;BME280;32676;52.630;4.896;2023-12-14T08:43:53;99748.22;;;5.49;81.83
46942;BME280;32676;52.630;4.896;2023-12-14T08:46:20;99770.69;;;5.55;81.79
46942;BME280;32676;52.630;4.896;2023-12-14T08:48:48;99798.28;;;5.62;81.81
46942;BME280;32676;52.630;4.896;2023-12-14T08:51:15;99831.03;;;5.69;81.65
46942;BME280;32676;52.630;4.896;2023-12-14T08:53:42;99865.59;;;5.77;81.46
46942;BME280;32676;52.630;4.896;2023-12-14T08:56:09;99913.97;;;5.88;81.54
46942;BME280;32676;52.630;4.896;2023-12-14T08:58:37;99943.31;;;5.96;81.53
46942;BME280;32676;52.630;4.896;2023-12-14T09:01:03;99959.09;;;5.90;81.30
46942;BME280;32676;52.630;4.896;2023-12-14T09:03:30;99999.59;;;6.05;81.51
46942;BME280;32676;52.630;4.896;2023-12-14T09:05:56;100046.97;;;6.21;81.18
46942;BME280;32676;52.630;4.896;2023-12-14T09:08:23;100088.47;;;6.30;81.09
46942;BME280;32676;52.630;4.896;2023-12-14T09:10:50;100130.78;;;6.41;81.15
46942;BME280;32676;52.630;4.896;2023-12-14T09:13:16;100156.78;;;6.46;80.75
46942;BME280;32676;52.630;4.896;2023-12-14T09:15:44;100184.47;;;6.51;80.70
46942;BME280;32676;52.630;4.896;2023-12-14T09:18:11;100191.63;;;6.43;80.22
46942;BME280;32676;52.630;4.896;2023-12-14T09:20:37;100235.44;;;6.65;79.89
46942;BME280;32676;52.630;4.896;2023-12-14T09:23:05;100251.03;;;6.68;79.58
46942;BME280;32676;52.630;4.896;2023-12-14T09:25:32;100270.03;;;6.73;79.51
46942;BME280;32676;52.630;4.896;2023-12-14T09:27:58;100283.94;;;6.75;79.44
46942;BME280;32676;52.630;4.896;2023-12-14T09:30:24;100289.16;;;6.75;79.24
46942;BME280;32676;52.630;4.896;2023-12-14T09:32:52;100285.63;;;6.76;79.09
46942;BME280;32676;52.630;4.896;2023-12-14T09:35:19;100302.06;;;6.80;78.60
46942;BME280;32676;52.630;4.896;2023-12-14T09:37:45;100296.84;;;6.80;78.37
46942;BME280;32676;52.630;4.896;2023-12-14T09:40:12;100309.88;;;6.81;78.38
46942;BME280;32676;52.630;4.896;2023-12-14T09:42:39;100325.47;;;6.84;78.23
46942;BME280;32676;52.630;4.896;2023-12-14T09:45:07;100328.91;;;6.86;78.24
46942;BME280;32676;52.630;4.896;2023-12-14T09:47:34;100319.53;;;6.78;77.95
46942;BME280;32676;52.630;4.896;2023-12-14T09:50:03;100344.50;;;6.89;77.54
46942;BME280;32676;52.630;4.896;2023-12-14T09:52:30;100344.50;;;6.89;77.39
46942;BME280;32676;52.630;4.896;2023-12-14T09:54:57;100347.97;;;6.90;77.41
46942;BME280;32676;52.630;4.896;2023-12-14T09:57:23;100354.03;;;6.90;77.18
46942;BME280;32676;52.630;4.896;2023-12-14T09:59:51;100354.94;;;6.89;77.22
46942;BME280;32676;52.630;4.896;2023-12-14T10:02:18;100369.63;;;6.94;77.17
46942;BME280;32676;52.630;4.896;2023-12-14T10:04:45;100380.06;;;6.95;77.02
46942;BME280;32676;52.630;4.896;2023-12-14T10:07:13;100386.91;;;6.99;77.23
46942;BME280;32676;52.630;4.896;2023-12-14T10:09:41;100391.28;;;6.99;77.12
46942;BME280;32676;52.630;4.896;2023-12-14T10:12:09;100398.22;;;7.00;77.18
46942;BME280;32676;52.630;4.896;2023-12-14T10:14:36;100412.97;;;7.02;77.17
46942;BME280;32676;52.630;4.896;2023-12-14T10:17:17;100420.75;;;7.04;77.23
46942;BME280;32676;52.630;4.896;2023-12-14T10:19:44;100438.09;;;7.08;77.18
46942;BME280;32676;52.630;4.896;2023-12-14T10:22:14;100426.13;;;6.98;77.17
46942;BME280;32676;52.630;4.896;2023-12-14T10:24:43;100422.53;;;7.02;77.19
46942;BME280;32676;52.630;4.896;2023-12-14T10:27:10;100443.31;;;7.08;77.17
46942;BME280;32676;52.630;4.896;2023-12-14T10:29:37;100435.47;;;7.08;77.06
46942;BME280;32676;52.630;4.896;2023-12-14T10:32:05;100402.91;;;6.85;76.90
46942;BME280;32676;52.630;4.896;2023-12-14T10:34:32;100452.78;;;7.12;77.05
46942;BME280;32676;52.630;4.896;2023-12-14T10:36:59;100458.03;;;7.10;77.11
46942;BME280;32676;52.630;4.896;2023-12-14T10:39:29;100477.09;;;7.16;77.30
46942;BME280;32676;52.630;4.896;2023-12-14T10:41:57;100473.63;;;7.15;77.13
46942;BME280;32676;52.630;4.896;2023-12-14T10:44:26;100480.56;;;7.15;76.88
46942;BME280;32676;52.630;4.896;2023-12-14T10:46:55;100504.84;;;7.20;76.64
46942;BME280;32676;52.630;4.896;2023-12-14T10:49:23;100502.19;;;7.21;76.38
46942;BME280;32676;52.630;4.896;2023-12-14T10:51:50;100510.84;;;7.23;76.33
46942;BME280;32676;52.630;4.896;2023-12-14T10:54:18;100506.56;;;7.21;76.19
46942;BME280;32676;52.630;4.896;2023-12-14T10:56:46;100501.47;;;7.15;75.95
46942;BME280;32676;52.630;4.896;2023-12-14T10:59:15;100523.03;;;7.24;76.22
46942;BME280;32676;52.630;4.896;2023-12-14T11:01:41;100523.97;;;7.22;76.08
46942;BME280;32676;52.630;4.896;2023-12-14T11:04:08;100509.38;;;7.13;75.83
46942;BME280;32676;52.630;4.896;2023-12-14T11:06:38;100544.72;;;7.29;75.62
46942;BME280;32676;52.630;4.896;2023-12-14T11:09:08;100547.38;;;7.26;75.28
46942;BME280;32676;52.630;4.896;2023-12-14T11:11:40;100576.81;;;7.35;75.20
46942;BME280;32676;52.630;4.896;2023-12-14T11:14:11;100605.41;;;7.42;75.01
46942;BME280;32676;52.630;4.896;2023-12-14T11:16:39;100610.53;;;7.45;74.90
46942;BME280;32676;52.630;4.896;2023-12-14T11:19:25;100642.63;;;7.52;74.58
46942;BME280;32676;52.630;4.896;2023-12-14T11:22:09;100668.63;;;7.58;74.41
46942;BME280;32676;52.630;4.896;2023-12-14T11:24:38;100703.34;;;7.66;74.07
46942;BME280;32676;52.630;4.896;2023-12-14T11:27:07;100717.22;;;7.68;73.81
46942;BME280;32676;52.630;4.896;2023-12-14T11:29:36;100717.19;;;7.72;73.55
46942;BME280;32676;52.630;4.896;2023-12-14T11:32:05;100706.91;;;7.62;73.33
46942;BME280;32676;52.630;4.896;2023-12-14T11:34:32;100718.13;;;7.67;73.08
46942;BME280;32676;52.630;4.896;2023-12-14T11:36:58;100707.78;;;7.63;73.05
46942;BME280;32676;52.630;4.896;2023-12-14T11:39:30;100705.19;;;7.61;73.24
46942;BME280;32676;52.630;4.896;2023-12-14T11:42:00;100728.53;;;7.71;73.36
46942;BME280;32676;52.630;4.896;2023-12-14T11:44:26;100734.56;;;7.73;73.29
46942;BME280;32676;52.630;4.896;2023-12-14T11:46:54;100719.09;;;7.63;73.09
46942;BME280;32676;52.630;4.896;2023-12-14T11:49:24;100730.25;;;7.72;73.02
46942;BME280;32676;52.630;4.896;2023-12-14T11:51:50;100720.72;;;7.67;73.07
46942;BME280;32676;52.630;4.896;2023-12-14T11:54:17;100728.53;;;7.71;73.17
46942;BME280;32676;52.630;4.896;2023-12-14T11:56:46;100719.88;;;7.67;73.47
46942;BME280;32676;52.630;4.896;2023-12-14T11:59:12;100715.59;;;7.64;73.67
46942;BME280;32676;52.630;4.896;2023-12-14T12:01:55;100731.13;;;7.71;73.86
46942;BME280;32676;52.630;4.896;2023-12-14T12:04:22;100730.25;;;7.72;73.87
46942;BME280;32676;52.630;4.896;2023-12-14T12:06:48;100729.50;;;7.66;73.91
46942;BME280;32676;52.630;4.896;2023-12-14T12:09:33;100757.19;;;7.77;73.78
46942;BME280;32676;52.630;4.896;2023-12-14T12:12:00;100783.19;;;7.83;73.68
46942;BME280;32676;52.630;4.896;2023-12-14T12:14:27;100784.97;;;7.81;73.53
46942;BME280;32676;52.630;4.896;2023-12-14T12:16:55;100806.59;;;7.89;73.45
46942;BME280;32676;52.630;4.896;2023-12-14T12:19:21;100816.16;;;7.90;73.31
46942;BME280;32676;52.630;4.896;2023-12-14T12:21:48;100824.00;;;7.92;73.15
46942;BME280;32676;52.630;4.896;2023-12-14T12:24:14;100830.13;;;7.89;73.08
46942;BME280;32676;52.630;4.896;2023-12-14T12:26:40;100837.88;;;7.95;73.05
46942;BME280;32676;52.630;4.896;2023-12-14T12:29:07;100831.81;;;7.93;73.02
46942;BME280;32676;52.630;4.896;2023-12-14T12:31:33;100804.16;;;7.80;72.77
46942;BME280;32676;52.630;4.896;2023-12-14T12:34:01;100823.09;;;7.91;72.90
46942;BME280;32676;52.630;4.896;2023-12-14T12:36:28;100790.13;;;7.84;72.80
46942;BME280;32676;52.630;4.896;2023-12-14T12:38:54;100778.84;;;7.80;73.00
46942;BME280;32676;52.630;4.896;2023-12-14T12:41:21;100772.78;;;7.80;73.08
46942;BME280;32676;52.630;4.896;2023-12-14T12:43:47;100759.06;;;7.68;73.34
46942;BME280;32676;52.630;4.896;2023-12-14T12:46:14;100800.59;;;7.84;73.50
46942;BME280;32676;52.630;4.896;2023-12-14T12:48:40;100800.59;;;7.84;73.55
46942;BME280;32676;52.630;4.896;2023-12-14T12:51:08;100811.03;;;7.85;73.57
46942;BME280;32676;52.630;4.896;2023-12-14T12:53:34;100766.09;;;7.66;73.63
46942;BME280;32676;52.630;4.896;2023-12-14T12:56:01;100809.28;;;7.86;73.61
46942;BME280;32676;52.630;4.896;2023-12-14T12:58:28;100828.34;;;7.91;73.98
46942;BME280;32676;52.630;4.896;2023-12-14T13:00:54;100820.69;;;7.82;74.32
46942;BME280;32676;52.630;4.896;2023-12-14T13:03:22;100835.31;;;7.92;74.20
46942;BME280;32676;52.630;4.896;2023-12-14T13:05:49;100850.94;;;7.95;74.41
46942;BME280;32676;52.630;4.896;2023-12-14T13:08:16;100866.66;;;7.95;74.13